Time,TemperatureF,DewpointF,PressureIn,WindDirection,WindDirectionDegrees,WindSpeedMPH,WindSpeedGustMPH,Humidity,HourlyPrecipIn,Conditions,Clouds,dailyrainin,SoftwareType,DateUTC
2013-06-12 00:00:00,72.1,67.3,29.92,West,262,0.0,1.0,85,0.00,,---,0.00,VWS V14.01,2013-06-12 04:00:00,
2013-06-12 00:01:00,72.2,67.4,29.92,West,262,0.0,1.0,85,0.00,,---,0.00,VWS V14.01,2013-06-12 04:01:00,
2013-06-12 00:02:00,72.1,67.3,29.92,West,262,0.0,0.0,85,0.00,,---,0.00,VWS V14.01,2013-06-12 04:02:00,
2013-06-12 00:07:00,72.0,67.2,29.92,West,262,0.0,1.0,85,0.00,,---,0.00,VWS V14.01,2013-06-12 04:07:00,
2013-06-12 00:12:00,72.0,67.2,29.92,West,269,1.0,1.0,85,0.00,,---,0.00,VWS V14.01,2013-06-12 04:12:00,
2013-06-12 00:17:00,72.2,67.1,29.92,West,267,1.0,1.0,84,0.00,,---,0.00,VWS V14.01,2013-06-12 04:17:00,
2013-06-12 00:22:00,72.4,66.9,29.92,West,274,0.0,1.0,83,0.00,,---,0.00,VWS V14.01,2013-06-12 04:22:00,
2013-06-12 00:27:00,72.5,67.1,29.92,West,271,0.0,2.0,83,0.00,,---,0.00,VWS V14.01,2013-06-12 04:27:00,
2013-06-12 00:30:00,72.6,67.2,29.92,West,276,1.0,2.0,83,0.00,,---,0.00,VWS V14.01,2013-06-12 04:30:00,
2013-06-12 00:32:00,72.6,67.2,29.92,West,275,1.0,1.0,83,0.00,,---,0.00,VWS V14.01,2013-06-12 04:32:00,
2013-06-12 00:37:00,72.5,67.1,29.92,West,271,0.0,1.0,83,0.00,,---,0.00,VWS V14.01,2013-06-12 04:37:00,
2013-06-12 00:42:00,72.5,67.1,29.92,West,269,0.0,1.0,83,0.00,,---,0.00,VWS V14.01,2013-06-12 04:42:00,
2013-06-12 00:47:00,72.4,67.3,29.92,West,271,1.0,1.0,84,0.00,,---,0.00,VWS V14.01,2013-06-12 04:47:00,
2013-06-12 00:52:00,72.3,67.2,29.92,West,269,1.0,1.0,84,0.00,,---,0.00,VWS V14.01,2013-06-12 04:52:00,
2013-06-12 00:57:00,72.1,67.0,29.92,West,270,0.0,1.0,84,0.00,,---,0.00,VWS V14.01,2013-06-12 04:57:00,
2013-06-12 01:00:00,71.9,67.2,29.92,West,270,0.0,1.0,85,0.00,,---,0.00,VWS V14.01,2013-06-12 05:00:00,
2013-06-12 01:02:00,71.8,67.1,29.92,West,269,1.0,1.0,85,0.00,,---,0.00,VWS V14.01,2013-06-12 05:02:00,
2013-06-12 01:07:00,71.7,66.9,29.92,West,270,0.0,1.0,85,0.00,,---,0.00,VWS V14.01,2013-06-12 05:07:00,
2013-06-12 01:13:00,71.6,67.2,29.92,West,269,0.0,1.0,86,0.00,,---,0.00,VWS V14.01,2013-06-12 05:13:00,
2013-06-12 01:18:00,71.4,67.3,29.92,West,269,0.0,1.0,87,0.00,,---,0.00,VWS V14.01,2013-06-12 05:18:00,
2013-06-12 01:23:00,71.2,66.8,29.92,West,269,0.0,1.0,86,0.00,,---,0.00,VWS V14.01,2013-06-12 05:23:00,
2013-06-12 01:28:00,71.2,66.8,29.92,West,270,1.0,1.0,86,0.00,,---,0.00,VWS V14.01,2013-06-12 05:28:00,
2013-06-12 01:30:00,71.2,66.8,29.92,West,270,1.0,1.0,86,0.00,,---,0.00,VWS V14.01,2013-06-12 05:30:00,
2013-06-12 01:33:00,71.2,66.8,29.92,West,269,0.0,1.0,86,0.00,,---,0.00,VWS V14.01,2013-06-12 05:33:00,
2013-06-12 01:38:00,71.1,67.0,29.92,West,270,0.0,1.0,87,0.00,,---,0.00,VWS V14.01,2013-06-12 05:38:00,
2013-06-12 01:43:00,71.0,66.9,29.91,West,271,0.0,1.0,87,0.00,,---,0.00,VWS V14.01,2013-06-12 05:43:00,
2013-06-12 01:48:00,70.9,66.8,29.91,West,270,1.0,1.0,87,0.00,,---,0.00,VWS V14.01,2013-06-12 05:48:00,
2013-06-12 01:53:00,71.0,66.9,29.91,West,270,0.0,1.0,87,0.00,,---,0.00,VWS V14.01,2013-06-12 05:53:00,
2013-06-12 01:58:00,71.0,66.9,29.91,West,270,0.0,1.0,87,0.00,,---,0.00,VWS V14.01,2013-06-12 05:58:00,
2013-06-12 02:00:00,70.9,66.8,29.91,West,270,0.0,1.0,87,0.00,,---,0.00,VWS V14.01,2013-06-12 06:00:00,
2013-06-12 02:04:00,70.9,66.8,29.91,West,270,1.0,1.0,87,0.00,,---,0.00,VWS V14.01,2013-06-12 06:04:00,
2013-06-12 02:09:00,70.8,66.7,29.91,West,269,0.0,1.0,87,0.00,,---,0.00,VWS V14.01,2013-06-12 06:09:00,
2013-06-12 02:14:00,70.7,67.0,29.91,West,269,0.0,1.0,88,0.00,,---,0.00,VWS V14.01,2013-06-12 06:14:00,
2013-06-12 02:19:00,70.5,66.8,29.91,West,269,0.0,1.0,88,0.00,,---,0.00,VWS V14.01,2013-06-12 06:19:00,
2013-06-12 02:24:00,70.2,66.8,29.91,West,270,0.0,1.0,89,0.00,,---,0.00,VWS V14.01,2013-06-12 06:24:00,
2013-06-12 02:29:00,70.0,66.6,29.90,West,270,0.0,1.0,89,0.00,,---,0.00,VWS V14.01,2013-06-12 06:29:00,
2013-06-12 02:30:00,69.9,66.2,29.90,West,269,0.0,1.0,88,0.00,,---,0.00,VWS V14.01,2013-06-12 06:30:00,
2013-06-12 02:34:00,69.7,66.3,29.90,West,270,0.0,0.0,89,0.00,,---,0.00,VWS V14.01,2013-06-12 06:34:00,
2013-06-12 02:39:00,69.6,66.2,29.90,West,269,0.0,0.0,89,0.00,,---,0.00,VWS V14.01,2013-06-12 06:39:00,
2013-06-12 02:44:00,69.3,65.9,29.90,West,270,0.0,0.0,89,0.00,,---,0.00,VWS V14.01,2013-06-12 06:44:00,
2013-06-12 02:49:00,68.9,65.5,29.90,West,269,0.0,0.0,89,0.00,,---,0.00,VWS V14.01,2013-06-12 06:49:00,
2013-06-12 02:54:00,68.7,65.7,29.90,West,270,0.0,0.0,90,0.00,,---,0.00,VWS V14.01,2013-06-12 06:54:00,
2013-06-12 03:00:00,68.5,65.8,29.89,West,269,0.0,0.0,91,0.00,,---,0.00,VWS V14.01,2013-06-12 07:00:00,
2013-06-12 03:05:00,68.4,66.0,29.89,West,269,0.0,0.0,92,0.00,,---,0.00,VWS V14.01,2013-06-12 07:05:00,
2013-06-12 03:10:00,68.2,65.8,29.89,West,270,0.0,0.0,92,0.00,,---,0.00,VWS V14.01,2013-06-12 07:10:00,
2013-06-12 03:15:00,67.9,65.5,29.89,West,269,0.0,1.0,92,0.00,,---,0.00,VWS V14.01,2013-06-12 07:15:00,
2013-06-12 03:20:00,67.7,65.3,29.89,West,270,0.0,1.0,92,0.00,,---,0.00,VWS V14.01,2013-06-12 07:20:00,
2013-06-12 03:30:00,67.4,65.3,29.90,West,270,0.0,1.0,93,0.00,,---,0.00,VWS V14.01,2013-06-12 07:30:00,
2013-06-12 04:00:00,66.7,64.9,29.89,West,270,0.0,1.0,94,0.00,,---,0.00,VWS V14.01,2013-06-12 08:00:00,
2013-06-12 04:30:00,66.3,64.8,29.90,West,270,0.0,1.0,95,0.00,,---,0.00,VWS V14.01,2013-06-12 08:30:00,
2013-06-12 05:00:00,66.1,64.9,29.91,West,270,0.0,1.0,96,0.00,,---,0.00,VWS V14.01,2013-06-12 09:00:00,
2013-06-12 05:30:00,66.2,65.3,29.92,West,270,0.0,1.0,97,0.00,,---,0.00,VWS V14.01,2013-06-12 09:30:00,
2013-06-12 06:00:00,65.7,64.5,29.93,West,270,0.0,1.0,96,0.00,,---,0.00,VWS V14.01,2013-06-12 10:00:00,
2013-06-12 06:30:00,65.6,64.7,29.93,West,270,0.0,1.0,97,0.00,,---,0.00,VWS V14.01,2013-06-12 10:30:00,
2013-06-12 07:00:00,65.9,65.3,29.93,West,270,0.0,1.0,98,0.00,,---,0.00,VWS V14.01,2013-06-12 11:00:00,
2013-06-12 07:30:00,67.3,65.8,29.94,West,270,0.0,1.0,95,0.00,,---,0.00,VWS V14.01,2013-06-12 11:30:00,
2013-06-12 08:00:00,67.9,66.4,29.94,West,270,0.0,1.0,95,0.00,,---,0.00,VWS V14.01,2013-06-12 12:00:00,
2013-06-12 08:30:00,70.6,67.8,29.94,West,270,0.0,1.0,91,0.00,,---,0.00,VWS V14.01,2013-06-12 12:30:00,
2013-06-12 09:00:00,74.0,69.6,29.94,West,270,0.0,1.0,86,0.00,,---,0.00,VWS V14.01,2013-06-12 13:00:00,
2013-06-12 09:30:00,77.2,70.2,29.94,West,270,0.0,2.0,79,0.00,,---,0.00,VWS V14.01,2013-06-12 13:30:00,
2013-06-12 10:00:00,79.7,70.7,29.93,WSW,248,0.0,2.0,74,0.00,,---,0.00,VWS V14.01,2013-06-12 14:00:00,
2013-06-12 10:30:00,82.5,71.3,29.92,West,270,0.0,5.0,69,0.00,,---,0.00,VWS V14.01,2013-06-12 14:30:00,
2013-06-12 11:00:00,86.7,72.1,29.92,West,270,1.0,3.0,62,0.00,,---,0.00,VWS V14.01,2013-06-12 15:00:00,
2013-06-12 11:30:00,88.1,72.5,29.92,West,270,1.0,3.0,60,0.00,,---,0.00,VWS V14.01,2013-06-12 15:30:00,
2013-06-12 12:00:00,88.6,70.9,29.92,West,270,1.0,4.0,56,0.00,,---,0.00,VWS V14.01,2013-06-12 16:00:00,
2013-06-12 12:30:00,86.1,71.1,29.91,West,270,1.0,3.0,61,0.00,,---,0.00,VWS V14.01,2013-06-12 16:30:00,
2013-06-12 13:00:00,88.7,72.5,29.90,West,270,1.0,4.0,59,0.00,,---,0.00,VWS V14.01,2013-06-12 17:00:00,
2013-06-12 13:30:00,89.9,73.7,29.90,West,270,1.0,3.0,59,0.00,,---,0.00,VWS V14.01,2013-06-12 17:30:00,
2013-06-12 14:00:00,90.8,74.0,29.90,West,270,1.0,4.0,58,0.00,,---,0.00,VWS V14.01,2013-06-12 18:00:00,
2013-06-12 14:30:00,91.7,75.3,29.89,West,270,1.0,4.0,59,0.00,,---,0.00,VWS V14.01,2013-06-12 18:30:00,
2013-06-12 15:00:00,91.9,75.0,29.88,West,270,1.0,4.0,58,0.00,,---,0.00,VWS V14.01,2013-06-12 19:00:00,
2013-06-12 15:30:00,92.0,75.6,29.87,West,270,1.0,3.0,59,0.00,,---,0.00,VWS V14.01,2013-06-12 19:30:00,
2013-06-12 16:00:00,91.8,75.4,29.87,West,270,1.0,4.0,59,0.00,,---,0.00,VWS V14.01,2013-06-12 20:00:00,
2013-06-12 16:30:00,90.8,75.5,29.86,West,270,1.0,4.0,61,0.00,,---,0.00,VWS V14.01,2013-06-12 20:30:00,
2013-06-12 17:00:00,89.6,75.3,29.84,West,270,1.0,3.0,63,0.00,,---,0.00,VWS V14.01,2013-06-12 21:00:00,
2013-06-12 17:30:00,88.5,75.2,29.85,West,270,1.0,3.0,65,0.00,,---,0.00,VWS V14.01,2013-06-12 21:30:00,
2013-06-12 18:00:00,88.3,75.1,29.85,West,270,1.0,4.0,65,0.00,,---,0.00,VWS V14.01,2013-06-12 22:00:00,
2013-06-12 18:30:00,86.7,74.9,29.85,West,270,1.0,2.0,68,0.00,,---,0.00,VWS V14.01,2013-06-12 22:30:00,
2013-06-12 19:00:00,86.2,75.3,29.86,West,270,0.0,2.0,70,0.00,,---,0.00,VWS V14.01,2013-06-12 23:00:00,
2013-06-12 19:30:00,85.3,75.7,29.85,West,270,0.0,1.0,73,0.00,,---,0.00,VWS V14.01,2013-06-12 23:30:00,
2013-06-12 20:00:00,84.1,74.9,29.84,West,270,0.0,1.0,74,0.00,,---,0.00,VWS V14.01,2013-06-13 00:00:00,
2013-06-12 20:30:00,83.2,75.2,29.84,West,270,0.0,1.0,77,0.00,,---,0.00,VWS V14.01,2013-06-13 00:30:00,
2013-06-12 21:00:00,81.8,74.7,29.84,West,270,0.0,1.0,79,0.00,,---,0.00,VWS V14.01,2013-06-13 01:00:00,
2013-06-12 21:30:00,80.9,74.2,29.84,West,270,0.0,0.0,80,0.00,,---,0.00,VWS V14.01,2013-06-13 01:30:00,
2013-06-12 22:00:00,80.4,74.4,29.84,West,270,0.0,0.0,82,0.00,,---,0.00,VWS V14.01,2013-06-13 02:00:00,
2013-06-12 22:30:00,79.9,74.3,29.84,West,270,0.0,0.0,83,0.00,,---,0.00,VWS V14.01,2013-06-13 02:30:00,
2013-06-12 23:00:00,80.1,74.5,29.84,West,270,0.0,0.0,83,0.00,,---,0.00,VWS V14.01,2013-06-13 03:00:00,
2013-06-12 23:30:00,80.6,74.6,29.83,West,270,0.0,1.0,82,0.00,,---,0.00,VWS V14.01,2013-06-13 03:30:00,